Skip Navigation Links
NOAA logo - Click to go to the NOAA homepage
NOAA's National Weather Service
Alaska Aviation Weather Unit
  NWS logo - Click to go to the NWS homepage
Left Navbar Graphic     03 AKDT = 11 GMT

   
NOAA is celebrating 200 years of science, service, and stewardship. Visit the NOAA 200th celebration Web site to learn more.
USA.gov is the U.S. Government's official Web portal to all Federal, state and local government Web resources and services.
Facebook
NWS on Facebook

AAWU Home :: Display TAF Add Bookmark
TAF CYXY 290538Z 2906/2918 18010KT P6SM FEW160 SCT200
     FM291000 17008KT P6SM FEW040 SCT090 RMK
      NXT FCST BY 291200Z=

METAR CYXY 290500Z 20007KT 15SM FEW160 SCT210 M02/M09 A2965 RMK AC1CI2 SLP080= METAR CYXY 290600Z 21006KT 15SM SCT200 M02/M09 A2966 RMK CI3 SLP081= METAR CYXY 290700Z 19006KT 15SM BKN180 M04/M09 A2966 RMK AC5 OBS TKN +13 SLP082= METAR CYXY 290800Z 17010KT 15SM BKN200 M03/M08 A2966 RMK CI6 SLP083= METAR CYXY 290900Z 18013KT 15SM BKN200 M04/M09 A2966 RMK CI7 SLP084= METAR CYXY 291000Z 18012KT 15SM BKN200 M04/M08 A2966 RMK CI7 SLP083=
 Alaska TAF Map

NOAA's National Weather Service
Alaska Aviation Weather Unit
6930 Sand Lake Road
Anchorage, AK 99502-1845
Disclaimer
Credits
Glossary
Privacy Policy
About Us
Career Opportunities
Contact AAWU Internet Services Site last modified: April, 17th 2012